Licking, Missouri
Current Conditions -  °F | °C
As of 1:58 PM on Wednesday 17 Dec 2014 (Local Time) from KTBN Reporting Station
Overcast Overcast  
Wind Chill: 35°   Ceiling: 9000
Heat Index: 35°   Visibility: 10mi
Dew Point: 24°   Wind: 2mph
Humidity: 62%   Direction: 320°NW
Pressure: 30.23"   Gusts: NA
Location:  37.5°N, 91.86°W
Report Text: KTBN 171958Z AUTO 32002KT 10SM OVC090 02/M05 A3023 RMK AO2 SLP251 T00191047
Loading
Personal Weather Stations






























Interactive Weather Map New forecast layout! Learn more

10-Day Weather Forecast

Advertisements
Track Severe Weather on mobile